INFORMACIÓN METAR y TAF
METAR FOR LETL
ADDS - METARS form results

(1557 UTC 30 May 2020)
Data provider http://aviationweather.gov/metar/data/
 
METAR text: LETL 301530Z AUTO 16010KT CAVOK 26/06 Q1015
Conditions at: LETL (TERUEL , ES) observed 1530 UTC 30 May 2020
Temperature: 26.0°C (79°F)
Dewpoint: 6.0°C (43°F) [RH = 28%]
Pressure (altimeter): 29.97 inches Hg (1015.0 mb)
Winds: from the SSE (160 degrees) at 12 MPH (10 knots; 5.1 m/s)
Visibility: 6 or more miles (10+ km)
Ceiling: ceiling and visibility are OK
Clouds: unknown
Weather: no significant weather observed at this time

METAR text: LETL 301500Z AUTO 15012KT 110V190 CAVOK 25/06 Q1015
Conditions at: LETL (TERUEL , ES) observed 1500 UTC 30 May 2020
Temperature: 25.0°C (77°F)
Dewpoint: 6.0°C (43°F) [RH = 30%]
Pressure (altimeter): 29.97 inches Hg (1015.0 mb)
Winds: from the SSE (150 degrees) at 14 MPH (12 knots; 6.2 m/s)
Visibility: 6 or more miles (10+ km)
Ceiling: ceiling and visibility are OK
Clouds: unknown
Weather: no significant weather observed at this time

 MAPA DE AEROPUERTO

 INFORMACIÓN DE PISTA

 FRECUANCIAS DEL AEROPUERTO

 RADIO AYUDAS DEL AEROPUERTO



Powered by Virtual Airlines Manager [v2.6.2]